createdAt,value
2022-09-16T00:01:12.881Z,8.70
2022-09-16T00:03:41.832Z,8.85
2022-09-16T00:06:18.603Z,12.43
2022-09-16T00:08:48.704Z,9.45
2022-09-16T00:11:17.653Z,11.88
2022-09-16T00:13:46.232Z,7.88
2022-09-16T00:16:18.236Z,10.15
2022-09-16T00:18:46.442Z,11.25
2022-09-16T00:21:14.753Z,8.75
2022-09-16T00:23:42.914Z,7.60
2022-09-16T00:26:12.644Z,8.27
2022-09-16T00:28:40.933Z,8.02
2022-09-16T00:31:09.330Z,7.30
2022-09-16T00:33:37.524Z,8.13
2022-09-16T00:36:07.722Z,6.15
2022-09-16T00:38:36.402Z,11.30
2022-09-16T00:41:04.983Z,8.98
2022-09-16T00:43:51.183Z,9.55
2022-09-16T00:46:23.675Z,11.48
2022-09-16T00:48:52.213Z,7.13
2022-09-16T00:51:21.502Z,12.13
2022-09-16T00:53:57.201Z,12.50
2022-09-16T00:56:28.542Z,10.50
2022-09-16T00:59:03.632Z,7.10
2022-09-16T01:01:32.632Z,6.53
2022-09-16T01:04:04.501Z,11.40
2022-09-16T01:06:36.290Z,8.65
2022-09-16T01:09:05.112Z,8.80
2022-09-16T01:11:33.331Z,9.38
2022-09-16T01:14:23.041Z,6.13
2022-09-16T01:16:59.620Z,9.95
2022-09-16T01:22:11.892Z,8.70
2022-09-16T01:24:53.132Z,7.13
2022-09-16T01:27:51.041Z,9.90
2022-09-16T01:30:48.201Z,6.70
2022-09-16T01:33:26.602Z,8.40
2022-09-16T01:36:14.628Z,6.90
2022-09-16T01:39:08.551Z,8.15
2022-09-16T01:41:54.722Z,7.70
2022-09-16T01:44:32.012Z,9.03
2022-09-16T01:47:08.107Z,10.95
2022-09-16T01:49:44.232Z,7.75
2022-09-16T01:52:21.741Z,12.20
2022-09-16T01:54:54.022Z,8.52
2022-09-16T01:57:29.187Z,10.77
2022-09-16T02:00:02.967Z,8.27
2022-09-16T02:02:39.817Z,8.68
2022-09-16T02:05:14.052Z,10.38
2022-09-16T02:07:50.420Z,6.70
2022-09-16T02:10:23.511Z,11.35
2022-09-16T02:12:55.041Z,5.88
2022-09-16T02:15:25.761Z,6.43
2022-09-16T02:18:00.241Z,5.68
2022-09-16T02:20:31.100Z,9.18
2022-09-16T02:23:03.321Z,8.25
2022-09-16T02:25:35.911Z,6.55
2022-09-16T02:28:13.401Z,8.68
2022-09-16T02:30:45.572Z,12.38
2022-09-16T02:33:17.131Z,9.20
2022-09-16T02:38:26.159Z,7.43
2022-09-16T02:40:57.340Z,6.55
2022-09-16T02:43:26.221Z,7.70
2022-09-16T02:46:06.674Z,6.72
2022-09-16T02:48:44.181Z,5.78
2022-09-16T02:51:19.011Z,8.98
2022-09-16T02:53:50.911Z,6.13
2022-09-16T02:56:25.469Z,9.93
2022-09-16T02:58:53.941Z,8.02
2022-09-16T03:01:23.258Z,10.32
2022-09-16T03:03:56.510Z,5.63
2022-09-16T03:06:25.961Z,11.40
2022-09-16T03:08:58.364Z,9.88
2022-09-16T03:11:54.399Z,6.03
2022-09-16T03:14:54.801Z,9.75
2022-09-16T03:17:45.832Z,6.05
2022-09-16T03:20:25.560Z,8.00
2022-09-16T03:23:01.950Z,8.95
2022-09-16T03:25:41.180Z,8.20
2022-09-16T03:28:13.801Z,7.68
2022-09-16T03:30:48.466Z,6.63
2022-09-16T03:33:23.995Z,7.10
2022-09-16T03:35:57.702Z,8.13
2022-09-16T03:38:26.171Z,6.88
2022-09-16T03:40:54.531Z,4.43
2022-09-16T03:43:22.772Z,8.45
2022-09-16T03:45:52.689Z,5.75
2022-09-16T03:48:20.921Z,5.28
2022-09-16T03:50:48.962Z,5.38
2022-09-16T03:53:18.642Z,7.35
2022-09-16T03:55:48.772Z,6.15
2022-09-16T03:58:17.010Z,6.47
2022-09-16T04:00:51.121Z,5.07
2022-09-16T04:03:19.362Z,6.60
2022-09-16T04:05:52.480Z,5.25
2022-09-16T04:08:22.756Z,7.93
2022-09-16T04:10:55.263Z,6.40
2022-09-16T04:13:23.523Z,4.57
2022-09-16T04:15:52.429Z,9.20
2022-09-16T04:18:20.660Z,18.95
2022-09-16T04:20:48.762Z,45.28
2022-09-16T04:23:17.051Z,45.10
2022-09-16T04:25:55.462Z,31.63
2022-09-16T04:28:23.913Z,26.15
2022-09-16T04:30:52.539Z,15.48
2022-09-16T04:33:21.144Z,15.07
2022-09-16T04:35:49.291Z,7.93
2022-09-16T04:38:17.552Z,9.02
2022-09-16T04:43:15.411Z,11.10
2022-09-16T04:45:43.712Z,8.30
2022-09-16T04:48:11.951Z,14.63
2022-09-16T04:50:40.050Z,28.38
2022-09-16T04:53:08.271Z,43.08
2022-09-16T04:55:36.893Z,44.70
2022-09-16T04:58:06.800Z,59.80
2022-09-16T05:00:34.962Z,58.05
2022-09-16T05:03:03.092Z,50.35
2022-09-16T05:05:31.292Z,50.50
2022-09-16T05:07:59.362Z,34.42
2022-09-16T05:10:29.001Z,29.40
2022-09-16T05:12:57.121Z,24.67
2022-09-16T05:15:27.102Z,22.70
2022-09-16T05:17:55.332Z,27.95
2022-09-16T05:20:23.561Z,25.80
2022-09-16T05:22:51.983Z,20.75
2022-09-16T05:25:20.042Z,18.55
2022-09-16T05:27:48.340Z,18.75
2022-09-16T05:30:17.673Z,13.32
2022-09-16T05:35:15.851Z,10.85
2022-09-16T05:37:43.952Z,10.02
2022-09-16T05:40:12.298Z,8.02
2022-09-16T05:42:40.532Z,8.98
2022-09-16T05:45:09.952Z,7.75
2022-09-16T05:47:38.193Z,11.25
2022-09-16T05:50:09.321Z,9.07
2022-09-16T05:52:37.891Z,8.23
2022-09-16T05:55:06.720Z,12.38
2022-09-16T05:57:34.856Z,12.32
2022-09-16T06:00:03.752Z,12.32
2022-09-16T06:02:38.618Z,11.85
2022-09-16T06:05:09.881Z,11.85
2022-09-16T06:07:38.332Z,13.88
2022-09-16T06:10:07.690Z,10.25
2022-09-16T06:12:35.752Z,10.70
2022-09-16T06:15:03.971Z,13.10
2022-09-16T06:17:32.101Z,14.18
2022-09-16T06:20:00.248Z,17.30
2022-09-16T06:22:32.941Z,15.18
2022-09-16T06:25:01.143Z,14.35
2022-09-16T06:27:31.502Z,18.13
2022-09-16T06:32:33.250Z,15.90
2022-09-16T06:35:01.522Z,16.27
2022-09-16T06:37:29.683Z,11.68
2022-09-16T06:39:59.405Z,13.45
2022-09-16T06:42:28.842Z,15.25
2022-09-16T06:45:04.764Z,40.83
2022-09-16T06:47:35.631Z,55.95
2022-09-16T06:50:05.601Z,34.03
2022-09-16T06:52:33.872Z,32.25
2022-09-16T06:55:03.451Z,32.28
2022-09-16T06:57:31.920Z,13.63
2022-09-16T07:00:00.124Z,17.55
2022-09-16T07:02:29.039Z,21.65
2022-09-16T07:04:57.482Z,17.45
2022-09-16T07:07:30.241Z,20.17
2022-09-16T07:09:59.481Z,13.32
2022-09-16T07:12:32.159Z,16.05
2022-09-16T07:15:03.367Z,19.45
2022-09-16T07:17:31.772Z,18.08
2022-09-16T07:20:01.080Z,12.02
2022-09-16T07:22:32.781Z,9.77
2022-09-16T07:25:01.883Z,14.40
2022-09-16T07:27:33.571Z,9.60
2022-09-16T07:30:03.618Z,13.57
2022-09-16T07:32:35.500Z,9.98
2022-09-16T07:35:03.791Z,14.75
2022-09-16T07:37:32.112Z,12.77
2022-09-16T07:40:00.292Z,11.75
2022-09-16T07:42:31.831Z,18.25
2022-09-16T07:44:59.981Z,10.85
2022-09-16T07:47:28.161Z,12.40
2022-09-16T07:49:56.520Z,9.35
2022-09-16T07:52:29.715Z,7.95
2022-09-16T07:54:58.213Z,10.02
2022-09-16T07:57:26.622Z,8.48
2022-09-16T07:59:58.301Z,3.70
2022-09-16T08:02:28.250Z,5.03
2022-09-16T08:04:56.850Z,5.90
2022-09-16T08:07:25.103Z,8.60
2022-09-16T08:09:53.491Z,6.68
2022-09-16T08:12:22.292Z,9.07
2022-09-16T08:14:50.553Z,8.25
2022-09-16T08:17:20.183Z,9.05
2022-09-16T08:19:48.632Z,10.30
2022-09-16T08:22:16.750Z,4.88
2022-09-16T08:24:45.131Z,7.40
2022-09-16T08:27:13.552Z,11.85
2022-09-16T08:29:41.875Z,10.82
2022-09-16T08:32:10.871Z,5.97
2022-09-16T08:34:41.232Z,7.50
2022-09-16T08:37:10.194Z,13.82
2022-09-16T08:39:38.422Z,8.93
2022-09-16T08:42:35.872Z,7.20
2022-09-16T08:45:19.962Z,7.30
2022-09-16T08:48:01.591Z,7.00
2022-09-16T08:50:34.771Z,12.52
2022-09-16T08:53:08.031Z,9.85
2022-09-16T08:55:40.511Z,7.93
2022-09-16T08:58:15.801Z,10.80
2022-09-16T09:00:47.282Z,8.30
2022-09-16T09:03:24.900Z,5.85
2022-09-16T09:05:56.602Z,9.50
2022-09-16T09:08:40.741Z,6.93
2022-09-16T09:11:27.950Z,10.13
2022-09-16T09:14:11.181Z,4.93
2022-09-16T09:16:47.024Z,7.63
2022-09-16T09:19:32.492Z,10.55
2022-09-16T09:22:08.650Z,7.18
2022-09-16T09:24:52.399Z,8.80
2022-09-16T09:27:28.950Z,8.10
2022-09-16T09:30:06.128Z,9.55
2022-09-16T09:32:49.463Z,9.60
2022-09-16T09:35:30.492Z,7.55
2022-09-16T09:38:39.123Z,11.32
2022-09-16T09:41:13.231Z,7.32
2022-09-16T09:43:47.685Z,9.43
2022-09-16T09:46:23.786Z,7.40
2022-09-16T09:49:00.759Z,6.57
2022-09-16T09:51:33.762Z,10.52
2022-09-16T09:54:20.908Z,8.27
2022-09-16T09:56:51.778Z,7.35
2022-09-16T09:59:28.651Z,4.32
2022-09-16T10:01:58.673Z,6.30
2022-09-16T10:04:27.613Z,6.50
2022-09-16T10:06:57.765Z,4.15
2022-09-16T10:09:28.110Z,8.35
2022-09-16T10:11:57.318Z,6.95
2022-09-16T10:14:30.438Z,7.93
2022-09-16T10:17:03.509Z,4.03
2022-09-16T10:19:35.903Z,5.38
2022-09-16T10:22:11.932Z,5.90
2022-09-16T10:24:43.708Z,8.95
2022-09-16T10:27:22.549Z,3.90
2022-09-16T10:30:08.396Z,5.75
2022-09-16T10:32:57.088Z,6.30
2022-09-16T10:35:27.772Z,9.45
2022-09-16T10:37:59.120Z,6.63
2022-09-16T10:40:29.665Z,8.45
2022-09-16T10:43:04.449Z,5.20
2022-09-16T10:45:36.372Z,8.18
2022-09-16T10:48:12.202Z,8.68
2022-09-16T10:50:52.908Z,5.25
2022-09-16T10:53:30.912Z,5.00
2022-09-16T10:56:08.713Z,9.15
2022-09-16T10:58:37.881Z,7.15
2022-09-16T11:01:22.314Z,8.27
2022-09-16T11:04:25.397Z,5.53
2022-09-16T11:07:09.252Z,3.92
2022-09-16T11:09:50.850Z,6.18
2022-09-16T11:12:47.063Z,5.20
2022-09-16T11:15:29.197Z,3.33
2022-09-16T11:18:11.901Z,3.28
2022-09-16T11:20:59.853Z,4.75
2022-09-16T11:23:49.524Z,7.32
2022-09-16T11:26:27.438Z,8.00
2022-09-16T11:29:13.905Z,5.90
2022-09-16T11:31:54.764Z,10.57
2022-09-16T11:34:47.715Z,8.77
2022-09-16T11:37:27.132Z,6.97
2022-09-16T11:40:14.663Z,6.45
2022-09-16T11:42:47.664Z,6.13
2022-09-16T11:45:37.023Z,4.53
2022-09-16T11:48:41.123Z,5.88
2022-09-16T11:51:26.638Z,7.95
2022-09-16T11:54:10.640Z,9.13
2022-09-16T11:56:44.442Z,5.55
2022-09-16T11:59:21.276Z,7.15
2022-09-16T12:02:02.895Z,5.68
2022-09-16T12:04:39.280Z,6.50
2022-09-16T12:07:18.666Z,7.63
2022-09-16T12:09:52.992Z,10.23
2022-09-16T12:12:25.981Z,10.52
2022-09-16T12:15:04.786Z,9.77
2022-09-16T12:17:38.947Z,10.00
2022-09-16T12:20:14.978Z,10.48
2022-09-16T12:22:49.732Z,10.25
2022-09-16T12:25:22.969Z,6.78
2022-09-16T12:27:54.931Z,7.47
2022-09-16T12:30:28.368Z,8.00
2022-09-16T12:33:06.842Z,8.38
2022-09-16T12:35:38.927Z,7.15
2022-09-16T12:38:13.843Z,5.78
2022-09-16T12:40:58.460Z,6.40
2022-09-16T12:44:23.478Z,8.57
2022-09-16T12:47:12.649Z,5.75
2022-09-16T12:52:42.247Z,4.50
2022-09-16T12:55:35.957Z,6.82
2022-09-16T12:58:24.938Z,8.50
2022-09-16T13:01:04.664Z,5.13
2022-09-16T13:06:07.187Z,6.03
2022-09-16T13:08:37.835Z,4.78
2022-09-16T13:13:59.713Z,7.30
2022-09-16T13:16:32.471Z,9.48
2022-09-16T13:19:28.622Z,7.50
2022-09-16T13:21:59.740Z,7.38
2022-09-16T13:24:37.439Z,5.75
2022-09-16T13:27:29.312Z,6.53
2022-09-16T13:30:42.193Z,7.85
2022-09-16T13:33:28.753Z,4.43
2022-09-16T13:36:31.989Z,9.85
2022-09-16T13:39:02.593Z,7.75
2022-09-16T13:41:36.130Z,7.90
2022-09-16T13:44:27.900Z,8.18
2022-09-16T13:47:08.010Z,12.02
2022-09-16T13:49:42.935Z,10.93
2022-09-16T13:52:13.359Z,7.65
2022-09-16T13:55:09.044Z,7.22
2022-09-16T13:57:49.861Z,10.15
2022-09-16T14:00:23.637Z,7.47
2022-09-16T14:03:17.785Z,4.63
2022-09-16T14:06:13.048Z,7.32
2022-09-16T14:08:51.643Z,10.52
2022-09-16T14:11:27.498Z,9.23
2022-09-16T14:14:06.877Z,9.80
2022-09-16T14:16:40.498Z,5.72
2022-09-16T14:19:19.455Z,5.45
2022-09-16T14:21:48.550Z,5.30
2022-09-16T14:24:19.731Z,7.90
2022-09-16T14:26:52.910Z,6.22
2022-09-16T14:29:24.304Z,8.18
2022-09-16T14:31:55.458Z,6.55
2022-09-16T14:34:29.379Z,7.82
2022-09-16T14:36:58.689Z,8.10
2022-09-16T14:39:28.718Z,9.02
2022-09-16T14:41:59.769Z,10.30
2022-09-16T14:44:36.155Z,5.80
2022-09-16T14:47:16.018Z,8.57
2022-09-16T14:49:53.999Z,5.13
2022-09-16T14:52:24.848Z,9.35
2022-09-16T14:54:53.699Z,7.90
2022-09-16T14:57:24.695Z,7.60
2022-09-16T14:59:58.408Z,10.38
2022-09-16T15:02:30.813Z,9.30
2022-09-16T15:05:04.926Z,10.18
2022-09-16T15:07:46.014Z,10.93
2022-09-16T15:10:30.259Z,14.65
2022-09-16T15:13:13.178Z,10.98
2022-09-16T15:15:50.352Z,11.02
2022-09-16T15:18:25.805Z,8.70
2022-09-16T15:21:04.321Z,10.10
2022-09-16T15:23:34.582Z,12.90
2022-09-16T15:26:13.176Z,7.45
2022-09-16T15:28:52.888Z,11.93
2022-09-16T15:31:32.606Z,13.77
2022-09-16T15:34:02.715Z,12.60
2022-09-16T15:36:40.413Z,8.20
2022-09-16T15:39:24.669Z,7.82
2022-09-16T15:42:11.631Z,10.23
2022-09-16T15:44:46.849Z,6.22
2022-09-16T15:47:25.584Z,9.37
2022-09-16T15:49:56.514Z,8.52
2022-09-16T15:52:25.126Z,9.50
2022-09-16T15:54:57.898Z,7.32
2022-09-16T15:57:32.240Z,13.50
2022-09-16T16:00:16.968Z,7.65
2022-09-16T16:02:52.351Z,13.75
2022-09-16T16:05:24.288Z,9.00
2022-09-16T16:07:55.035Z,11.55
2022-09-16T16:10:26.114Z,3.95
2022-09-16T16:12:56.899Z,8.60
2022-09-16T16:15:29.257Z,8.88
2022-09-16T16:18:02.263Z,8.68
2022-09-16T16:20:34.711Z,8.68
2022-09-16T16:23:04.897Z,8.35
2022-09-16T16:25:33.668Z,10.10
2022-09-16T16:28:02.558Z,6.10
2022-09-16T16:30:32.044Z,7.57
2022-09-16T16:33:02.197Z,7.90
2022-09-16T16:35:30.870Z,5.93
2022-09-16T16:38:00.024Z,9.70
2022-09-16T16:40:28.744Z,9.75
2022-09-16T16:42:57.715Z,7.88
2022-09-16T16:45:26.584Z,6.95
2022-09-16T16:47:55.339Z,8.63
2022-09-16T16:50:25.823Z,9.73
2022-09-16T16:52:56.500Z,10.20
2022-09-16T16:55:26.056Z,11.82
2022-09-16T16:57:55.237Z,9.85
2022-09-16T17:00:25.924Z,8.02
2022-09-16T17:02:54.862Z,11.35
2022-09-16T17:05:25.057Z,12.70
2022-09-16T17:07:53.817Z,6.47
2022-09-16T17:10:23.698Z,9.65
2022-09-16T17:15:21.575Z,9.10
2022-09-16T17:17:50.433Z,15.20
2022-09-16T17:20:19.429Z,10.02
2022-09-16T17:22:49.944Z,12.98
2022-09-16T17:25:18.708Z,9.30
2022-09-16T17:27:47.265Z,9.52
2022-09-16T17:30:15.989Z,12.13
2022-09-16T17:32:44.458Z,10.50
2022-09-16T17:35:13.204Z,9.82
2022-09-16T17:37:41.913Z,10.38
2022-09-16T17:40:12.764Z,11.93
2022-09-16T17:42:42.003Z,10.30
2022-09-16T17:45:11.369Z,11.52
2022-09-16T17:47:40.249Z,9.30
2022-09-16T17:50:09.301Z,10.95
2022-09-16T17:52:37.633Z,13.75
2022-09-16T17:55:06.273Z,11.50
2022-09-16T17:57:36.273Z,10.20
2022-09-16T18:00:05.741Z,12.43
2022-09-16T18:02:40.275Z,10.35
2022-09-16T18:05:09.718Z,8.65
2022-09-16T18:07:38.092Z,9.20
2022-09-16T18:12:37.323Z,12.10
2022-09-16T18:15:07.313Z,9.23
2022-09-16T18:17:35.695Z,13.57
2022-09-16T18:20:07.130Z,10.55
2022-09-16T18:22:35.622Z,9.52
2022-09-16T18:25:05.012Z,10.90
2022-09-16T18:27:34.232Z,10.70
2022-09-16T18:30:04.355Z,10.25
2022-09-16T18:32:33.140Z,10.77
2022-09-16T18:35:01.353Z,13.65
2022-09-16T18:37:29.753Z,15.20
2022-09-16T18:39:58.061Z,10.93
2022-09-16T18:42:26.533Z,11.73
2022-09-16T18:44:54.953Z,13.75
2022-09-16T18:47:24.952Z,10.82
2022-09-16T18:49:53.362Z,13.25
2022-09-16T18:52:21.653Z,10.85
2022-09-16T18:54:49.902Z,12.43
2022-09-16T18:57:18.372Z,10.52
2022-09-16T18:59:47.471Z,11.38
2022-09-16T19:02:16.592Z,9.13
2022-09-16T19:04:46.611Z,9.05
2022-09-16T19:07:17.632Z,9.82
2022-09-16T19:09:48.955Z,10.68
2022-09-16T19:12:17.372Z,11.45
2022-09-16T19:14:46.672Z,11.27
2022-09-16T19:17:15.428Z,14.90
2022-09-16T19:19:43.671Z,13.75
2022-09-16T19:22:13.782Z,12.88
2022-09-16T19:24:44.000Z,14.23
2022-09-16T19:27:12.452Z,9.77
2022-09-16T19:29:40.782Z,13.77
2022-09-16T19:32:08.983Z,10.63
2022-09-16T19:34:37.133Z,11.88
2022-09-16T19:37:05.844Z,10.57
2022-09-16T19:39:37.063Z,6.70
2022-09-16T19:42:11.002Z,8.73
2022-09-16T19:44:45.995Z,11.73
2022-09-16T19:47:19.703Z,9.20
2022-09-16T19:49:50.162Z,11.63
2022-09-16T19:52:18.431Z,8.98
2022-09-16T19:54:48.614Z,10.48
2022-09-16T19:57:17.343Z,11.18
2022-09-16T19:59:46.881Z,8.15
2022-09-16T20:02:16.433Z,12.82
2022-09-16T20:04:46.005Z,14.30
2022-09-16T20:07:17.465Z,11.90
2022-09-16T20:09:49.082Z,12.00
2022-09-16T20:12:17.674Z,14.07
2022-09-16T20:14:46.032Z,9.75
2022-09-16T20:17:14.943Z,11.45
2022-09-16T20:19:43.772Z,13.18
2022-09-16T20:22:13.383Z,11.55
2022-09-16T20:24:42.422Z,13.15
2022-09-16T20:27:13.170Z,11.38
2022-09-16T20:29:49.824Z,10.10
2022-09-16T20:32:18.491Z,11.38
2022-09-16T20:34:47.808Z,8.85
2022-09-16T20:37:17.043Z,9.82
2022-09-16T20:39:45.683Z,9.00
2022-09-16T20:42:15.632Z,9.43
2022-09-16T20:44:47.610Z,10.48
2022-09-16T20:47:17.921Z,12.07
2022-09-16T20:49:46.654Z,10.43
2022-09-16T20:52:16.522Z,10.38
2022-09-16T20:54:45.192Z,10.82
2022-09-16T20:57:17.362Z,11.65
2022-09-16T20:59:46.287Z,12.52
2022-09-16T21:02:14.710Z,7.57
2022-09-16T21:04:43.194Z,9.48
2022-09-16T21:07:12.551Z,9.77
2022-09-16T21:09:40.972Z,13.60
2022-09-16T21:12:11.462Z,8.35
2022-09-16T21:14:41.592Z,11.70
2022-09-16T21:17:10.332Z,9.35
2022-09-16T21:19:40.632Z,12.07
2022-09-16T21:22:09.792Z,9.32
2022-09-16T21:24:38.202Z,8.20
2022-09-16T21:27:07.133Z,8.60
2022-09-16T21:29:35.352Z,10.18
2022-09-16T21:32:05.202Z,11.23
2022-09-16T21:34:33.612Z,8.73
2022-09-16T21:37:03.942Z,14.15
2022-09-16T21:39:32.553Z,10.85
2022-09-16T21:42:01.155Z,13.70
2022-09-16T21:44:29.711Z,9.90
2022-09-16T21:46:57.834Z,8.73
2022-09-16T21:49:29.397Z,12.13
2022-09-16T21:51:59.096Z,9.05
2022-09-16T21:54:28.428Z,8.38
2022-09-16T21:56:56.518Z,8.60
2022-09-16T21:59:25.198Z,9.85
2022-09-16T22:01:57.554Z,8.80
2022-09-16T22:04:30.398Z,7.55
2022-09-16T22:06:58.636Z,8.32
2022-09-16T22:09:26.817Z,7.00
2022-09-16T22:11:55.096Z,9.05
2022-09-16T22:14:24.156Z,10.18
2022-09-16T22:16:52.218Z,7.72
2022-09-16T22:19:20.618Z,8.65
2022-09-16T22:21:51.977Z,7.40
2022-09-16T22:24:21.757Z,9.50
2022-09-16T22:26:51.370Z,8.88
2022-09-16T22:29:20.096Z,11.75
2022-09-16T22:31:48.758Z,8.82
2022-09-16T22:34:17.201Z,10.35
2022-09-16T22:36:45.497Z,12.98
2022-09-16T22:39:16.674Z,8.27
2022-09-16T22:41:45.090Z,8.88
2022-09-16T22:44:13.769Z,9.07
2022-09-16T22:46:43.910Z,12.20
2022-09-16T22:49:13.200Z,6.85
2022-09-16T22:51:41.672Z,8.13
2022-09-16T22:54:11.509Z,10.60
2022-09-16T22:56:42.197Z,10.50
2022-09-16T22:59:15.917Z,8.43
2022-09-16T23:01:44.263Z,11.07
2022-09-16T23:04:12.519Z,12.50
2022-09-16T23:06:41.529Z,10.60
2022-09-16T23:09:11.438Z,10.43
2022-09-16T23:11:41.393Z,7.10
2022-09-16T23:14:13.196Z,9.82
2022-09-16T23:16:42.987Z,13.98
2022-09-16T23:19:12.661Z,8.73
2022-09-16T23:21:41.242Z,6.20
2022-09-16T23:24:13.896Z,13.07
2022-09-16T23:26:44.609Z,12.50
2022-09-16T23:29:14.708Z,6.03
2022-09-16T23:31:44.650Z,11.45
2022-09-16T23:34:15.507Z,14.35
2022-09-16T23:36:43.998Z,6.30
2022-09-16T23:39:14.113Z,10.45
2022-09-16T23:41:44.568Z,9.90
2022-09-16T23:44:14.641Z,9.75
2022-09-16T23:46:43.359Z,8.43
2022-09-16T23:49:12.192Z,10.38
2022-09-16T23:51:40.398Z,9.55
2022-09-16T23:54:10.820Z,9.82
2022-09-16T23:56:38.957Z,8.68
2022-09-16T23:59:08.557Z,8.02
